createdAt,value
2019-04-10T00:00:37.271Z,94.20
2019-04-10T00:03:06.317Z,94.20
2019-04-10T00:05:36.102Z,94.30
2019-04-10T00:08:06.146Z,94.30
2019-04-10T00:10:36.107Z,94.30
2019-04-10T00:13:06.723Z,94.30
2019-04-10T00:15:35.331Z,94.30
2019-04-10T00:18:03.968Z,94.30
2019-04-10T00:20:32.589Z,94.40
2019-04-10T00:23:02.429Z,94.40
2019-04-10T00:25:31.312Z,94.20
2019-04-10T00:28:00.849Z,94.30
2019-04-10T00:30:29.944Z,94.30
2019-04-10T00:32:58.592Z,94.30
2019-04-10T00:35:27.639Z,94.30
2019-04-10T00:37:57.466Z,94.40
2019-04-10T00:40:26.266Z,94.30
2019-04-10T00:42:57.063Z,94.30
2019-04-10T00:45:25.234Z,94.30
2019-04-10T00:47:53.808Z,94.30
2019-04-10T00:50:22.370Z,94.30
2019-04-10T00:52:51.048Z,94.40
2019-04-10T00:55:19.717Z,94.40
2019-04-10T00:57:48.415Z,94.40
2019-04-10T01:00:17.389Z,94.50
2019-04-10T01:02:47.047Z,94.70
2019-04-10T01:05:17.307Z,94.70
2019-04-10T01:07:46.995Z,94.60
2019-04-10T01:10:16.291Z,94.60
2019-04-10T01:12:45.946Z,94.50
2019-04-10T01:15:14.847Z,94.50
2019-04-10T01:17:43.479Z,94.50
2019-04-10T01:20:12.124Z,94.40
2019-04-10T01:22:41.491Z,94.20
2019-04-10T01:25:10.374Z,94.20
2019-04-10T01:27:41.033Z,94.20
2019-04-10T01:30:10.463Z,94.20
2019-04-10T01:32:39.756Z,94.30
2019-04-10T01:35:09.825Z,94.20
2019-04-10T01:37:48.806Z,94.30
2019-04-10T01:40:10.724Z,94.50
2019-04-10T01:42:39.377Z,94.60
2019-04-10T01:45:09.023Z,94.50
2019-04-10T01:47:37.781Z,94.60
2019-04-10T01:50:06.664Z,94.60
2019-04-10T01:52:35.368Z,94.60
2019-04-10T01:55:18.168Z,94.60
2019-04-10T01:57:34.917Z,94.90
2019-04-10T02:00:06.756Z,94.90
2019-04-10T02:02:37.132Z,95.30
2019-04-10T02:05:06.213Z,94.90
2019-04-10T02:07:34.716Z,94.90
2019-04-10T02:10:03.842Z,94.70
2019-04-10T02:12:32.605Z,94.70
2019-04-10T02:15:01.423Z,94.70
2019-04-10T02:17:30.781Z,94.70
2019-04-10T02:20:00.718Z,94.60
2019-04-10T02:22:29.452Z,94.50
2019-04-10T02:24:58.172Z,94.40
2019-04-10T02:27:26.768Z,94.50
2019-04-10T02:29:55.777Z,94.80
2019-04-10T02:32:26.275Z,94.80
2019-04-10T02:34:55.250Z,94.70
2019-04-10T02:37:25.081Z,94.60
2019-04-10T02:39:59.928Z,94.60
2019-04-10T02:42:24.802Z,94.50
2019-04-10T02:44:54.172Z,94.50
2019-04-10T02:47:23.119Z,94.80
2019-04-10T02:49:52.252Z,95.00
2019-04-10T02:52:22.537Z,95.10
2019-04-10T02:54:51.267Z,95.00
2019-04-10T02:57:21.367Z,94.90
2019-04-10T02:59:51.218Z,94.80
2019-04-10T03:02:20.300Z,94.80
2019-04-10T03:04:49.215Z,94.90
2019-04-10T03:07:19.770Z,94.90
2019-04-10T03:10:00.980Z,94.90
2019-04-10T03:12:19.730Z,95.30
2019-04-10T03:14:49.853Z,95.00
2019-04-10T03:17:19.711Z,95.00
2019-04-10T03:19:48.308Z,95.00
2019-04-10T03:22:16.805Z,95.10
2019-04-10T03:24:46.230Z,95.20
2019-04-10T03:27:16.277Z,95.10
2019-04-10T03:29:46.328Z,95.50
2019-04-10T03:32:36.521Z,95.10
2019-04-10T03:35:14.786Z,95.00
2019-04-10T03:37:44.553Z,94.90
2019-04-10T03:40:13.662Z,95.00
2019-04-10T03:42:43.305Z,94.90
2019-04-10T03:45:12.008Z,95.20
2019-04-10T03:47:41.753Z,95.10
2019-04-10T03:50:10.995Z,94.80
2019-04-10T03:52:39.551Z,94.60
2019-04-10T03:55:08.513Z,94.60
2019-04-10T03:57:37.065Z,94.50
2019-04-10T04:00:06.899Z,94.50
2019-04-10T04:02:35.954Z,94.50
2019-04-10T04:05:06.576Z,94.70
2019-04-10T04:07:35.265Z,94.60
2019-04-10T04:10:06.456Z,94.60
2019-04-10T04:12:35.167Z,94.60
2019-04-10T04:15:05.370Z,94.60
2019-04-10T04:17:34.077Z,94.70
2019-04-10T04:20:02.753Z,94.80
2019-04-10T04:22:31.316Z,94.90
2019-04-10T04:25:00.288Z,94.80
2019-04-10T04:27:29.277Z,94.80
2019-04-10T04:29:58.079Z,94.90
2019-04-10T04:32:26.689Z,94.60
2019-04-10T04:34:56.308Z,94.90
2019-04-10T04:37:25.783Z,94.80
2019-04-10T04:39:54.630Z,94.70
2019-04-10T04:42:24.421Z,94.70
2019-04-10T04:44:54.227Z,94.60
2019-04-10T04:47:22.829Z,94.60
2019-04-10T04:49:52.343Z,94.30
2019-04-10T04:52:21.093Z,94.40
2019-04-10T04:54:49.874Z,94.60
2019-04-10T04:57:18.688Z,94.60
2019-04-10T04:59:48.272Z,94.60
2019-04-10T05:02:17.743Z,94.40
2019-04-10T05:04:46.640Z,94.40
2019-04-10T05:07:15.130Z,94.30
2019-04-10T05:09:44.026Z,94.20
2019-04-10T05:12:13.380Z,94.30
2019-04-10T05:14:42.116Z,94.40
2019-04-10T05:17:10.674Z,94.60
2019-04-10T05:19:39.165Z,94.50
2019-04-10T05:22:08.056Z,94.50
2019-04-10T05:24:36.661Z,94.40
2019-04-10T05:27:05.748Z,94.40
2019-04-10T05:29:34.626Z,94.20
2019-04-10T05:32:03.189Z,94.30
2019-04-10T05:34:32.445Z,94.40
2019-04-10T05:37:01.004Z,94.40
2019-04-10T05:39:39.813Z,94.20
2019-04-10T05:42:01.948Z,94.20
2019-04-10T05:44:30.201Z,94.20
2019-04-10T05:46:59.060Z,94.20
2019-04-10T05:49:28.855Z,94.50
2019-04-10T05:51:57.691Z,94.10
2019-04-10T05:54:26.979Z,94.10
2019-04-10T05:56:55.799Z,94.10
2019-04-10T05:59:24.332Z,94.30
2019-04-10T06:01:52.979Z,94.10
2019-04-10T06:04:21.565Z,94.00
2019-04-10T06:06:50.218Z,93.90
2019-04-10T06:09:18.927Z,93.70
2019-04-10T06:11:47.468Z,93.50
2019-04-10T06:14:16.033Z,93.50
2019-04-10T06:16:44.778Z,93.60
2019-04-10T06:19:13.653Z,93.50
2019-04-10T06:21:42.505Z,93.70
2019-04-10T06:24:11.930Z,93.90
2019-04-10T06:26:40.759Z,93.90
2019-04-10T06:29:09.267Z,93.70
2019-04-10T06:31:39.062Z,93.40
2019-04-10T06:34:08.924Z,93.30
2019-04-10T06:36:37.717Z,93.70
2019-04-10T06:39:06.840Z,93.70
2019-04-10T06:41:35.386Z,93.80
2019-04-10T06:44:04.131Z,93.60
2019-04-10T06:46:32.779Z,93.60
2019-04-10T06:49:01.288Z,93.60
2019-04-10T06:51:29.980Z,93.80
2019-04-10T06:54:02.837Z,93.90
2019-04-10T06:56:29.198Z,93.70
2019-04-10T06:58:58.332Z,93.90
2019-04-10T07:01:39.033Z,93.90
2019-04-10T07:04:03.631Z,93.80
2019-04-10T07:06:44.626Z,93.70
2019-04-10T07:08:59.006Z,93.90
2019-04-10T07:11:30.521Z,93.60
2019-04-10T07:13:58.529Z,93.70
2019-04-10T07:16:31.507Z,93.50
2019-04-10T07:19:01.619Z,93.70
2019-04-10T07:21:30.681Z,93.70
2019-04-10T07:24:04.579Z,93.60
2019-04-10T07:26:38.134Z,93.60
2019-04-10T07:29:00.578Z,93.30
2019-04-10T07:31:30.340Z,93.50
2019-04-10T07:33:59.960Z,93.60
2019-04-10T07:36:29.435Z,93.20
2019-04-10T07:38:59.178Z,93.30
2019-04-10T07:41:29.265Z,93.40
2019-04-10T07:43:58.350Z,93.20
2019-04-10T07:46:28.248Z,93.00
2019-04-10T07:48:57.197Z,93.20
2019-04-10T07:51:26.026Z,93.20
2019-04-10T07:53:55.590Z,93.20
2019-04-10T07:56:24.613Z,93.40
2019-04-10T07:58:53.826Z,93.30
2019-04-10T08:01:22.608Z,93.20
2019-04-10T08:03:52.459Z,93.20
2019-04-10T08:06:21.401Z,93.20
2019-04-10T08:08:51.065Z,93.30
2019-04-10T08:11:19.992Z,93.00
2019-04-10T08:13:49.237Z,92.60
2019-04-10T08:16:18.924Z,92.90
2019-04-10T08:18:47.821Z,92.30
2019-04-10T08:21:17.658Z,92.30
2019-04-10T08:23:46.558Z,92.30
2019-04-10T08:26:16.221Z,92.50
2019-04-10T08:28:45.411Z,92.20
2019-04-10T08:31:14.939Z,92.40
2019-04-10T08:33:44.064Z,92.30
2019-04-10T08:36:13.023Z,92.10
2019-04-10T08:38:42.121Z,92.20
2019-04-10T08:41:11.031Z,92.40
2019-04-10T08:43:39.731Z,92.80
2019-04-10T08:46:08.732Z,92.70
2019-04-10T08:48:37.461Z,92.20
2019-04-10T08:51:06.586Z,92.50
2019-04-10T08:53:36.224Z,92.40
2019-04-10T08:56:06.502Z,91.90
2019-04-10T08:58:35.281Z,92.10
2019-04-10T09:01:05.023Z,92.20
2019-04-10T09:03:33.724Z,91.90
2019-04-10T09:06:02.908Z,92.60
2019-04-10T09:08:31.653Z,92.10
2019-04-10T09:11:00.953Z,92.30
2019-04-10T09:13:30.670Z,92.20
2019-04-10T09:16:00.327Z,92.30
2019-04-10T09:18:29.482Z,91.90
2019-04-10T09:20:59.320Z,91.90
2019-04-10T09:23:37.934Z,91.40
2019-04-10T09:25:59.565Z,91.90
2019-04-10T09:28:28.519Z,91.60
2019-04-10T09:30:57.430Z,91.50
2019-04-10T09:33:28.298Z,91.20
2019-04-10T09:35:57.151Z,91.10
2019-04-10T09:38:26.463Z,91.00
2019-04-10T09:40:55.299Z,91.10
2019-04-10T09:43:23.855Z,90.70
2019-04-10T09:45:53.565Z,90.80
2019-04-10T09:48:22.294Z,90.90
2019-04-10T09:50:50.911Z,91.00
2019-04-10T09:53:19.480Z,91.40
2019-04-10T09:55:49.013Z,91.10
2019-04-10T09:58:17.683Z,91.10
2019-04-10T10:00:46.662Z,91.00
2019-04-10T10:03:15.349Z,90.80
2019-04-10T10:05:44.634Z,90.40
2019-04-10T10:08:14.212Z,90.40
2019-04-10T10:10:43.175Z,90.70
2019-04-10T10:13:12.977Z,90.70
2019-04-10T10:15:41.755Z,90.20
2019-04-10T10:18:10.987Z,90.10
2019-04-10T10:20:39.746Z,89.70
2019-04-10T10:23:09.534Z,89.50
2019-04-10T10:25:39.368Z,88.50
2019-04-10T10:28:09.088Z,89.00
2019-04-10T10:30:37.835Z,89.10
2019-04-10T10:33:07.641Z,88.10
2019-04-10T10:35:36.369Z,88.20
2019-04-10T10:38:05.450Z,88.00
2019-04-10T10:40:34.161Z,86.40
2019-04-10T10:43:02.820Z,86.50
2019-04-10T10:45:31.464Z,86.80
2019-04-10T10:48:01.198Z,86.20
2019-04-10T10:50:31.033Z,86.00
2019-04-10T10:52:59.837Z,84.20
2019-04-10T10:55:29.612Z,83.70
2019-04-10T10:57:59.404Z,84.70
2019-04-10T11:00:29.418Z,84.60
2019-04-10T11:02:58.456Z,82.50
2019-04-10T11:05:27.348Z,82.60
2019-04-10T11:07:57.267Z,84.40
2019-04-10T11:10:27.502Z,85.60
2019-04-10T11:12:56.325Z,85.60
2019-04-10T11:15:26.127Z,85.20
2019-04-10T11:17:55.089Z,83.80
2019-04-10T11:20:24.168Z,85.30
2019-04-10T11:22:53.694Z,83.00
2019-04-10T11:25:22.365Z,83.70
2019-04-10T11:27:51.613Z,83.90
2019-04-10T11:30:20.687Z,82.80
2019-04-10T11:32:50.733Z,83.20
2019-04-10T11:35:21.644Z,83.30
2019-04-10T11:37:53.309Z,82.80
2019-04-10T11:40:20.989Z,81.90
2019-04-10T11:42:51.535Z,79.30
2019-04-10T11:45:20.204Z,79.50
2019-04-10T11:47:51.325Z,78.80
2019-04-10T11:50:19.164Z,78.10
2019-04-10T11:57:49.665Z,76.70
2019-04-10T12:00:23.752Z,75.90
2019-04-10T12:02:52.862Z,76.20
2019-04-10T12:05:23.882Z,76.60
2019-04-10T12:12:54.222Z,76.50
2019-04-10T12:15:23.906Z,78.40
2019-04-10T12:17:52.525Z,78.00
2019-04-10T12:20:21.301Z,77.00
2019-04-10T12:22:49.883Z,77.90
2019-04-10T12:25:18.696Z,79.70
2019-04-10T12:27:47.462Z,79.40
2019-04-10T12:30:17.493Z,78.80
2019-04-10T12:32:47.447Z,79.90
2019-04-10T12:35:17.109Z,80.30
2019-04-10T12:37:45.796Z,80.80
2019-04-10T12:40:14.863Z,80.40
2019-04-10T12:42:44.155Z,81.90
2019-04-10T12:45:13.552Z,81.40
2019-04-10T12:47:42.153Z,81.00
2019-04-10T12:50:12.141Z,80.20
2019-04-10T12:52:40.912Z,80.80
2019-04-10T12:55:10.211Z,80.30
2019-04-10T12:57:39.162Z,80.70
2019-04-10T13:00:12.360Z,81.70
2019-04-10T13:02:41.013Z,81.20
2019-04-10T13:05:09.826Z,81.90
2019-04-10T13:07:38.426Z,80.80
2019-04-10T13:10:08.596Z,80.30
2019-04-10T13:12:37.630Z,80.70
2019-04-10T13:15:08.213Z,80.90
2019-04-10T13:17:36.769Z,81.00
2019-04-10T13:20:09.280Z,80.10
2019-04-10T13:22:38.103Z,78.50
2019-04-10T13:25:08.141Z,78.90
2019-04-10T13:27:36.905Z,81.70
2019-04-10T13:30:12.597Z,82.90
2019-04-10T13:32:40.281Z,79.20
2019-04-10T13:35:10.194Z,80.10
2019-04-10T13:37:38.991Z,81.30
2019-04-10T13:40:07.964Z,80.80
2019-04-10T13:42:37.164Z,80.40
2019-04-10T13:45:08.130Z,77.60
2019-04-10T13:47:36.792Z,79.10
2019-04-10T13:50:08.721Z,76.90
2019-04-10T13:52:39.166Z,77.10
2019-04-10T13:55:08.903Z,76.30
2019-04-10T13:57:39.202Z,75.40
2019-04-10T14:00:11.285Z,76.60
2019-04-10T14:02:40.045Z,75.30
2019-04-10T14:05:11.616Z,75.90
2019-04-10T14:07:40.371Z,75.20
2019-04-10T14:10:10.500Z,74.40
2019-04-10T14:12:39.263Z,75.70
2019-04-10T14:15:08.057Z,74.90
2019-04-10T14:17:37.618Z,73.20
2019-04-10T14:20:07.005Z,74.30
2019-04-10T14:22:37.956Z,74.20
2019-04-10T14:25:09.593Z,74.10
2019-04-10T14:27:38.491Z,73.80
2019-04-10T14:30:11.322Z,72.80
2019-04-10T14:32:40.363Z,73.00
2019-04-10T14:35:09.887Z,73.50
2019-04-10T14:37:38.603Z,70.90
2019-04-10T14:40:09.424Z,72.00
2019-04-10T14:42:38.385Z,72.30
2019-04-10T14:45:09.005Z,70.40
2019-04-10T14:47:37.920Z,70.80
2019-04-10T14:50:07.528Z,70.70
2019-04-10T14:52:37.147Z,71.50
2019-04-10T14:55:06.310Z,70.70
2019-04-10T14:57:35.483Z,71.60
2019-04-10T15:00:08.606Z,70.90
2019-04-10T15:02:37.222Z,71.30
2019-04-10T15:05:08.075Z,70.20
2019-04-10T15:07:37.309Z,71.40
2019-04-10T15:10:06.897Z,70.50
2019-04-10T15:12:35.581Z,70.30
2019-04-10T15:15:05.443Z,71.50
2019-04-10T15:17:34.140Z,71.60
2019-04-10T15:20:02.832Z,72.20
2019-04-10T15:22:31.766Z,72.20
2019-04-10T15:25:01.417Z,72.00
2019-04-10T15:27:30.233Z,72.00
2019-04-10T15:29:58.890Z,71.60
2019-04-10T15:32:27.505Z,72.60
2019-04-10T15:34:56.128Z,73.20
2019-04-10T15:37:24.918Z,73.70
2019-04-10T15:39:53.950Z,72.50
2019-04-10T15:42:23.767Z,72.70
2019-04-10T15:44:52.482Z,73.50
2019-04-10T15:47:23.093Z,74.10
2019-04-10T15:49:51.607Z,74.70
2019-04-10T15:52:20.335Z,73.70
2019-04-10T15:54:49.941Z,74.50
2019-04-10T15:57:18.938Z,74.30
2019-04-10T15:59:48.314Z,74.10
2019-04-10T16:02:16.994Z,73.80
2019-04-10T16:04:45.647Z,73.30
2019-04-10T16:07:14.966Z,73.00
2019-04-10T16:09:49.882Z,73.10
2019-04-10T16:12:16.587Z,72.00
2019-04-10T16:14:46.479Z,72.00
2019-04-10T16:17:29.377Z,72.20
2019-04-10T16:19:59.877Z,71.80
2019-04-10T16:22:31.129Z,71.60
2019-04-10T16:25:01.581Z,71.80
2019-04-10T16:27:30.714Z,70.90
2019-04-10T16:30:02.060Z,72.10
2019-04-10T16:32:30.060Z,71.40
2019-04-10T16:34:58.984Z,72.30
2019-04-10T16:37:27.726Z,73.60
2019-04-10T16:40:00.320Z,74.20
2019-04-10T16:42:26.806Z,74.00
2019-04-10T16:44:55.475Z,73.50
2019-04-10T16:47:24.180Z,73.10
2019-04-10T16:49:53.113Z,73.00
2019-04-10T16:52:23.024Z,71.50
2019-04-10T16:54:51.833Z,71.60
2019-04-10T16:57:20.713Z,71.00
2019-04-10T16:59:49.419Z,74.40
2019-04-10T17:02:18.064Z,76.40
2019-04-10T17:04:46.696Z,77.60
2019-04-10T17:07:15.484Z,77.80
2019-04-10T17:09:45.483Z,76.20
2019-04-10T17:12:14.344Z,78.30
2019-04-10T17:14:43.899Z,78.20
2019-04-10T17:17:12.659Z,77.90
2019-04-10T17:19:50.474Z,79.70
2019-04-10T17:22:11.803Z,81.40
2019-04-10T17:24:41.989Z,81.30
2019-04-10T17:27:11.166Z,81.20
2019-04-10T17:29:40.984Z,80.60
2019-04-10T17:32:11.000Z,80.50
2019-04-10T17:34:40.973Z,82.70
2019-04-10T17:37:09.816Z,82.90
2019-04-10T17:39:39.634Z,80.30
2019-04-10T17:42:08.468Z,80.10
2019-04-10T17:44:38.115Z,82.70
2019-04-10T17:47:09.550Z,82.20
2019-04-10T17:49:39.221Z,82.00
2019-04-10T17:52:08.308Z,81.70
2019-04-10T17:54:37.057Z,82.50
2019-04-10T17:57:05.973Z,83.30
2019-04-10T17:59:34.918Z,82.30
2019-04-10T18:02:05.511Z,81.10
2019-04-10T18:04:34.324Z,82.40
2019-04-10T18:07:03.892Z,82.30
2019-04-10T18:09:33.430Z,82.90
2019-04-10T18:12:03.932Z,84.20
2019-04-10T18:14:36.346Z,83.60
2019-04-10T18:17:03.058Z,84.40
2019-04-10T18:19:32.370Z,85.20
2019-04-10T18:22:01.088Z,85.00
2019-04-10T18:24:30.428Z,85.10
2019-04-10T18:27:00.047Z,85.20
2019-04-10T18:29:30.949Z,85.30
2019-04-10T18:32:00.923Z,85.50
2019-04-10T18:34:30.620Z,86.20
2019-04-10T18:36:59.167Z,85.50
2019-04-10T18:39:27.797Z,84.30
2019-04-10T18:41:59.311Z,84.20
2019-04-10T18:44:26.920Z,84.50
2019-04-10T18:46:56.445Z,85.00
2019-04-10T18:49:25.081Z,83.90
2019-04-10T18:51:54.987Z,84.50
2019-04-10T18:54:24.931Z,84.60
2019-04-10T18:56:53.717Z,84.00
2019-04-10T18:59:24.723Z,85.80
2019-04-10T19:01:55.707Z,85.00
2019-04-10T19:04:30.759Z,85.70
2019-04-10T19:07:01.160Z,84.20
2019-04-10T19:09:32.485Z,85.20
2019-04-10T19:12:02.459Z,85.40
2019-04-10T19:14:34.956Z,85.00
2019-04-10T19:17:02.534Z,84.80
2019-04-10T19:19:33.101Z,84.10
2019-04-10T19:22:02.218Z,84.50
2019-04-10T19:24:32.366Z,86.30
2019-04-10T19:27:02.736Z,84.80
2019-04-10T19:29:31.805Z,86.10
2019-04-10T19:32:02.143Z,84.40
2019-04-10T19:34:31.719Z,83.60
2019-04-10T19:37:00.711Z,85.00
2019-04-10T19:39:30.013Z,84.10
2019-04-10T19:41:58.802Z,84.70
2019-04-10T19:44:28.835Z,85.80
2019-04-10T19:46:57.861Z,84.60
2019-04-10T19:49:26.602Z,84.50
2019-04-10T19:51:56.001Z,85.70
2019-04-10T19:54:26.076Z,86.50
2019-04-10T19:56:55.096Z,86.90
2019-04-10T19:59:24.923Z,85.40
2019-04-10T20:01:54.825Z,85.50
2019-04-10T20:04:24.158Z,85.30
2019-04-10T20:06:56.448Z,82.70
2019-04-10T20:09:25.271Z,80.60
2019-04-10T20:11:56.165Z,78.90
2019-04-10T20:14:24.639Z,75.50
2019-04-10T20:16:53.473Z,75.00
2019-04-10T20:19:24.528Z,75.30
2019-04-10T20:21:54.495Z,73.60
2019-04-10T20:24:25.027Z,72.80
2019-04-10T20:26:53.922Z,71.80
2019-04-10T20:29:23.281Z,72.70
2019-04-10T20:31:55.364Z,72.00
2019-04-10T20:34:24.272Z,72.30
2019-04-10T20:36:53.324Z,71.70
2019-04-10T20:39:23.257Z,72.30
2019-04-10T20:41:55.071Z,72.20
2019-04-10T20:44:22.810Z,72.50
2019-04-10T20:46:52.679Z,73.60
2019-04-10T20:49:22.486Z,73.70
2019-04-10T20:51:51.232Z,73.30
2019-04-10T20:54:20.353Z,72.40
2019-04-10T20:56:49.161Z,71.40
2019-04-10T20:59:17.648Z,71.90
2019-04-10T21:01:47.002Z,71.30
2019-04-10T21:04:15.660Z,72.10
2019-04-10T21:06:44.329Z,72.30
2019-04-10T21:09:13.031Z,72.60
2019-04-10T21:11:41.894Z,72.10
2019-04-10T21:14:12.116Z,72.00
2019-04-10T21:16:42.083Z,73.00
2019-04-10T21:19:11.118Z,72.80
2019-04-10T21:21:39.937Z,73.00
2019-04-10T21:24:09.273Z,72.90
2019-04-10T21:26:38.795Z,73.00
2019-04-10T21:29:09.600Z,73.40
2019-04-10T21:31:57.387Z,73.10
2019-04-10T21:34:30.485Z,72.90
2019-04-10T21:36:59.747Z,72.50
2019-04-10T21:39:29.646Z,72.40
2019-04-10T21:42:12.766Z,72.90
2019-04-10T21:44:31.501Z,72.20
2019-04-10T21:47:01.263Z,72.60
2019-04-10T21:49:30.332Z,73.30
2019-04-10T21:51:59.981Z,73.10
2019-04-10T21:54:29.707Z,71.60
2019-04-10T21:56:59.687Z,71.60
2019-04-10T21:59:29.005Z,72.20
2019-04-10T22:01:57.911Z,72.30
2019-04-10T22:04:27.379Z,72.00
2019-04-10T22:07:01.441Z,72.50
2019-04-10T22:09:31.861Z,72.00
2019-04-10T22:12:02.279Z,71.70
2019-04-10T22:14:31.018Z,71.80
2019-04-10T22:17:00.338Z,71.70
2019-04-10T22:19:29.137Z,72.10
2019-04-10T22:21:57.949Z,72.10
2019-04-10T22:24:26.699Z,72.00
2019-04-10T22:26:55.401Z,72.10
2019-04-10T22:29:24.208Z,72.20
2019-04-10T22:31:53.447Z,72.20
2019-04-10T22:34:22.418Z,72.50
2019-04-10T22:36:51.351Z,72.00
2019-04-10T22:39:21.828Z,72.90
2019-04-10T22:41:51.043Z,73.40
2019-04-10T22:44:19.760Z,73.00
2019-04-10T22:46:48.553Z,73.00
2019-04-10T22:49:18.065Z,73.10
2019-04-10T22:51:47.088Z,73.40
2019-04-10T22:54:15.883Z,73.00
2019-04-10T22:56:45.436Z,73.30
2019-04-10T22:59:15.597Z,73.20
2019-04-10T23:01:45.333Z,73.20
2019-04-10T23:04:14.353Z,73.10
2019-04-10T23:06:43.143Z,73.20
2019-04-10T23:09:12.375Z,73.20
2019-04-10T23:11:43.525Z,73.50
2019-04-10T23:14:12.321Z,73.90
2019-04-10T23:16:41.047Z,74.30
2019-04-10T23:19:09.934Z,74.30
2019-04-10T23:21:38.762Z,74.70
2019-04-10T23:24:07.615Z,74.30
2019-04-10T23:26:37.440Z,73.60
2019-04-10T23:29:06.287Z,73.40
2019-04-10T23:31:35.036Z,74.00
2019-04-10T23:34:04.177Z,73.70
2019-04-10T23:36:33.975Z,73.80
2019-04-10T23:39:03.837Z,74.00
2019-04-10T23:41:33.695Z,74.30
2019-04-10T23:44:02.327Z,74.50
2019-04-10T23:46:31.008Z,74.10
2019-04-10T23:48:59.519Z,74.20
2019-04-10T23:51:29.297Z,74.60
2019-04-10T23:53:57.868Z,74.60
2019-04-10T23:56:27.341Z,74.60
2019-04-10T23:58:56.206Z,75.10
